sensor_id;sensor_type;location;lat;lon;timestamp;temperature;humidity
4687;DHT22;2357;47.316;-1.348;2022-12-18T00:01:33;0.00;99.90
4687;DHT22;2357;47.316;-1.348;2022-12-18T00:04:00;0.00;99.90
4687;DHT22;2357;47.316;-1.348;2022-12-18T00:06:27;-0.10;99.90
4687;DHT22;2357;47.316;-1.348;2022-12-18T00:08:55;-0.10;99.90
4687;DHT22;2357;47.316;-1.348;2022-12-18T00:11:23;-0.10;99.90
4687;DHT22;2357;47.316;-1.348;2022-12-18T00:13:50;-0.10;99.90
4687;DHT22;2357;47.316;-1.348;2022-12-18T00:16:21;-0.10;99.90
4687;DHT22;2357;47.316;-1.348;2022-12-18T00:18:53;-0.10;99.90
4687;DHT22;2357;47.316;-1.348;2022-12-18T00:21:19;-0.10;99.90
4687;DHT22;2357;47.316;-1.348;2022-12-18T00:23:46;-0.10;99.90
4687;DHT22;2357;47.316;-1.348;2022-12-18T00:26:15;-0.10;99.90
4687;DHT22;2357;47.316;-1.348;2022-12-18T00:28:42;-0.20;99.90
4687;DHT22;2357;47.316;-1.348;2022-12-18T00:31:11;-0.20;99.90
4687;DHT22;2357;47.316;-1.348;2022-12-18T00:33:37;-0.20;99.90
4687;DHT22;2357;47.316;-1.348;2022-12-18T00:36:20;-0.10;99.90
4687;DHT22;2357;47.316;-1.348;2022-12-18T00:38:46;-0.10;99.90
4687;DHT22;2357;47.316;-1.348;2022-12-18T00:41:14;-0.10;99.90
4687;DHT22;2357;47.316;-1.348;2022-12-18T00:43:59;-0.20;99.90
4687;DHT22;2357;47.316;-1.348;2022-12-18T00:46:25;-0.20;99.90
4687;DHT22;2357;47.316;-1.348;2022-12-18T00:48:51;-0.20;99.90
4687;DHT22;2357;47.316;-1.348;2022-12-18T00:51:16;-0.20;99.90
4687;DHT22;2357;47.316;-1.348;2022-12-18T00:53:42;-0.20;99.90
4687;DHT22;2357;47.316;-1.348;2022-12-18T00:56:08;-0.10;99.90
4687;DHT22;2357;47.316;-1.348;2022-12-18T00:58:33;-0.10;99.90
4687;DHT22;2357;47.316;-1.348;2022-12-18T01:00:59;-0.10;99.90
4687;DHT22;2357;47.316;-1.348;2022-12-18T01:03:25;-0.10;99.90
4687;DHT22;2357;47.316;-1.348;2022-12-18T01:05:50;-0.10;99.90
4687;DHT22;2357;47.316;-1.348;2022-12-18T01:08:16;0.00;99.90
4687;DHT22;2357;47.316;-1.348;2022-12-18T01:10:41;0.00;99.90
4687;DHT22;2357;47.316;-1.348;2022-12-18T01:13:07;0.00;99.90
4687;DHT22;2357;47.316;-1.348;2022-12-18T01:15:33;0.00;99.90
4687;DHT22;2357;47.316;-1.348;2022-12-18T01:17:58;-0.10;99.90
4687;DHT22;2357;47.316;-1.348;2022-12-18T01:20:24;-0.10;99.90
4687;DHT22;2357;47.316;-1.348;2022-12-18T01:22:50;-0.20;99.90
4687;DHT22;2357;47.316;-1.348;2022-12-18T01:25:15;-0.20;99.90
4687;DHT22;2357;47.316;-1.348;2022-12-18T01:27:41;-0.20;99.90
4687;DHT22;2357;47.316;-1.348;2022-12-18T01:30:07;-0.20;99.90
4687;DHT22;2357;47.316;-1.348;2022-12-18T01:32:33;-0.20;99.90
4687;DHT22;2357;47.316;-1.348;2022-12-18T01:34:58;-0.20;99.90
4687;DHT22;2357;47.316;-1.348;2022-12-18T01:37:24;-0.10;99.90
4687;DHT22;2357;47.316;-1.348;2022-12-18T01:39:50;-0.30;99.90
4687;DHT22;2357;47.316;-1.348;2022-12-18T01:42:17;-0.20;99.90
4687;DHT22;2357;47.316;-1.348;2022-12-18T01:50:09;0.00;99.90
4687;DHT22;2357;47.316;-1.348;2022-12-18T01:52:36;0.00;99.90
4687;DHT22;2357;47.316;-1.348;2022-12-18T01:55:06;-0.10;99.90
4687;DHT22;2357;47.316;-1.348;2022-12-18T01:57:32;0.00;99.90
4687;DHT22;2357;47.316;-1.348;2022-12-18T02:00:04;0.00;99.90
4687;DHT22;2357;47.316;-1.348;2022-12-18T02:02:30;0.00;99.90
4687;DHT22;2357;47.316;-1.348;2022-12-18T02:04:56;0.00;99.90
4687;DHT22;2357;47.316;-1.348;2022-12-18T02:10:14;0.00;99.90
4687;DHT22;2357;47.316;-1.348;2022-12-18T02:12:48;-0.10;99.90
4687;DHT22;2357;47.316;-1.348;2022-12-18T02:15:27;0.00;99.90
4687;DHT22;2357;47.316;-1.348;2022-12-18T02:18:08;0.00;99.90
4687;DHT22;2357;47.316;-1.348;2022-12-18T02:20:43;-0.10;99.90
4687;DHT22;2357;47.316;-1.348;2022-12-18T02:29:01;-0.10;99.90
4687;DHT22;2357;47.316;-1.348;2022-12-18T02:31:30;-0.10;99.90
4687;DHT22;2357;47.316;-1.348;2022-12-18T02:34:01;-0.10;99.90
4687;DHT22;2357;47.316;-1.348;2022-12-18T02:36:29;-0.10;99.90
4687;DHT22;2357;47.316;-1.348;2022-12-18T02:38:56;-0.10;99.90
4687;DHT22;2357;47.316;-1.348;2022-12-18T02:41:22;-0.10;99.90
4687;DHT22;2357;47.316;-1.348;2022-12-18T02:43:49;-0.10;99.90
4687;DHT22;2357;47.316;-1.348;2022-12-18T02:46:38;-0.10;99.90
4687;DHT22;2357;47.316;-1.348;2022-12-18T02:49:29;-0.10;99.90
4687;DHT22;2357;47.316;-1.348;2022-12-18T02:57:40;0.00;99.90
4687;DHT22;2357;47.316;-1.348;2022-12-18T03:00:12;0.00;99.90
4687;DHT22;2357;47.316;-1.348;2022-12-18T03:02:44;0.00;99.90
4687;DHT22;2357;47.316;-1.348;2022-12-18T03:05:19;0.00;99.90
4687;DHT22;2357;47.316;-1.348;2022-12-18T03:08:07;0.00;99.90
4687;DHT22;2357;47.316;-1.348;2022-12-18T03:10:38;0.10;99.90
4687;DHT22;2357;47.316;-1.348;2022-12-18T03:13:12;0.10;99.90
4687;DHT22;2357;47.316;-1.348;2022-12-18T03:15:44;0.10;99.90
4687;DHT22;2357;47.316;-1.348;2022-12-18T03:18:15;0.00;99.90
4687;DHT22;2357;47.316;-1.348;2022-12-18T03:20:44;0.00;99.90
4687;DHT22;2357;47.316;-1.348;2022-12-18T03:23:15;0.00;99.90
4687;DHT22;2357;47.316;-1.348;2022-12-18T03:25:44;0.00;99.90
4687;DHT22;2357;47.316;-1.348;2022-12-18T03:28:14;0.00;99.90
4687;DHT22;2357;47.316;-1.348;2022-12-18T03:30:41;0.00;99.90
4687;DHT22;2357;47.316;-1.348;2022-12-18T03:33:18;0.00;99.90
4687;DHT22;2357;47.316;-1.348;2022-12-18T03:35:45;0.00;99.90
4687;DHT22;2357;47.316;-1.348;2022-12-18T03:38:11;0.10;99.90
4687;DHT22;2357;47.316;-1.348;2022-12-18T03:41:13;0.20;99.90
4687;DHT22;2357;47.316;-1.348;2022-12-18T03:43:51;0.20;99.90
4687;DHT22;2357;47.316;-1.348;2022-12-18T03:49:10;0.20;99.90
4687;DHT22;2357;47.316;-1.348;2022-12-18T03:51:44;0.20;99.90
4687;DHT22;2357;47.316;-1.348;2022-12-18T03:54:11;0.20;99.90
4687;DHT22;2357;47.316;-1.348;2022-12-18T03:56:48;0.20;99.90
4687;DHT22;2357;47.316;-1.348;2022-12-18T03:59:16;0.20;99.90
4687;DHT22;2357;47.316;-1.348;2022-12-18T04:01:46;0.20;99.90
4687;DHT22;2357;47.316;-1.348;2022-12-18T04:04:13;0.20;99.90
4687;DHT22;2357;47.316;-1.348;2022-12-18T04:06:41;0.30;99.90
4687;DHT22;2357;47.316;-1.348;2022-12-18T04:09:07;0.30;99.90
4687;DHT22;2357;47.316;-1.348;2022-12-18T04:11:32;0.30;99.90
4687;DHT22;2357;47.316;-1.348;2022-12-18T04:13:58;0.30;99.90
4687;DHT22;2357;47.316;-1.348;2022-12-18T04:16:25;0.40;99.90
4687;DHT22;2357;47.316;-1.348;2022-12-18T04:18:52;0.30;99.90
4687;DHT22;2357;47.316;-1.348;2022-12-18T04:21:19;0.20;99.90
4687;DHT22;2357;47.316;-1.348;2022-12-18T04:23:44;0.30;99.90
4687;DHT22;2357;47.316;-1.348;2022-12-18T04:26:10;0.30;99.90
4687;DHT22;2357;47.316;-1.348;2022-12-18T04:28:36;0.30;99.90
4687;DHT22;2357;47.316;-1.348;2022-12-18T04:31:01;0.30;99.90
4687;DHT22;2357;47.316;-1.348;2022-12-18T04:33:28;0.30;99.90
4687;DHT22;2357;47.316;-1.348;2022-12-18T04:35:53;0.30;99.90
4687;DHT22;2357;47.316;-1.348;2022-12-18T04:38:19;0.40;99.90
4687;DHT22;2357;47.316;-1.348;2022-12-18T04:40:45;0.40;99.90
4687;DHT22;2357;47.316;-1.348;2022-12-18T04:43:10;0.30;99.90
4687;DHT22;2357;47.316;-1.348;2022-12-18T04:45:36;0.30;99.90
4687;DHT22;2357;47.316;-1.348;2022-12-18T04:48:03;0.40;99.90
4687;DHT22;2357;47.316;-1.348;2022-12-18T04:50:29;0.40;99.90
4687;DHT22;2357;47.316;-1.348;2022-12-18T04:52:56;0.40;99.90
4687;DHT22;2357;47.316;-1.348;2022-12-18T04:55:22;0.40;99.90
4687;DHT22;2357;47.316;-1.348;2022-12-18T04:57:47;0.40;99.90
4687;DHT22;2357;47.316;-1.348;2022-12-18T05:00:13;0.50;99.90
4687;DHT22;2357;47.316;-1.348;2022-12-18T05:02:39;0.50;99.90
4687;DHT22;2357;47.316;-1.348;2022-12-18T05:05:05;0.50;99.90
4687;DHT22;2357;47.316;-1.348;2022-12-18T05:07:31;0.50;99.90
4687;DHT22;2357;47.316;-1.348;2022-12-18T05:09:57;0.60;99.90
4687;DHT22;2357;47.316;-1.348;2022-12-18T05:12:22;0.60;99.90
4687;DHT22;2357;47.316;-1.348;2022-12-18T05:14:48;0.60;99.90
4687;DHT22;2357;47.316;-1.348;2022-12-18T05:17:14;0.60;99.90
4687;DHT22;2357;47.316;-1.348;2022-12-18T05:19:39;0.70;99.90
4687;DHT22;2357;47.316;-1.348;2022-12-18T05:22:05;0.60;99.90
4687;DHT22;2357;47.316;-1.348;2022-12-18T05:24:30;0.60;99.90
4687;DHT22;2357;47.316;-1.348;2022-12-18T05:26:56;0.70;99.90
4687;DHT22;2357;47.316;-1.348;2022-12-18T05:29:22;0.70;99.90
4687;DHT22;2357;47.316;-1.348;2022-12-18T05:31:47;0.70;99.90
4687;DHT22;2357;47.316;-1.348;2022-12-18T05:34:13;0.70;99.90
4687;DHT22;2357;47.316;-1.348;2022-12-18T05:36:39;0.70;99.90
4687;DHT22;2357;47.316;-1.348;2022-12-18T05:39:04;0.70;99.90
4687;DHT22;2357;47.316;-1.348;2022-12-18T05:41:30;0.70;99.90
4687;DHT22;2357;47.316;-1.348;2022-12-18T05:43:55;0.80;99.90
4687;DHT22;2357;47.316;-1.348;2022-12-18T05:46:21;0.80;99.90
4687;DHT22;2357;47.316;-1.348;2022-12-18T05:48:46;0.80;99.90
4687;DHT22;2357;47.316;-1.348;2022-12-18T05:51:15;0.80;99.90
4687;DHT22;2357;47.316;-1.348;2022-12-18T05:53:42;0.80;99.90
4687;DHT22;2357;47.316;-1.348;2022-12-18T05:56:12;0.80;99.90
4687;DHT22;2357;47.316;-1.348;2022-12-18T05:58:38;0.80;99.90
4687;DHT22;2357;47.316;-1.348;2022-12-18T06:01:14;0.80;99.90
4687;DHT22;2357;47.316;-1.348;2022-12-18T06:03:40;0.80;99.90
4687;DHT22;2357;47.316;-1.348;2022-12-18T06:06:23;0.80;99.90
4687;DHT22;2357;47.316;-1.348;2022-12-18T06:08:51;0.80;99.90
4687;DHT22;2357;47.316;-1.348;2022-12-18T06:11:20;0.80;99.90
4687;DHT22;2357;47.316;-1.348;2022-12-18T06:13:49;0.90;99.90
4687;DHT22;2357;47.316;-1.348;2022-12-18T06:16:14;0.90;99.90
4687;DHT22;2357;47.316;-1.348;2022-12-18T06:18:40;0.90;99.90
4687;DHT22;2357;47.316;-1.348;2022-12-18T06:21:06;0.90;99.90
4687;DHT22;2357;47.316;-1.348;2022-12-18T06:23:31;0.90;99.90
4687;DHT22;2357;47.316;-1.348;2022-12-18T06:25:57;0.90;99.90
4687;DHT22;2357;47.316;-1.348;2022-12-18T06:28:23;0.90;99.90
4687;DHT22;2357;47.316;-1.348;2022-12-18T06:30:49;0.90;99.90
4687;DHT22;2357;47.316;-1.348;2022-12-18T06:33:15;1.00;99.90
4687;DHT22;2357;47.316;-1.348;2022-12-18T06:35:41;1.00;99.90
4687;DHT22;2357;47.316;-1.348;2022-12-18T06:38:07;1.00;99.90
4687;DHT22;2357;47.316;-1.348;2022-12-18T06:40:33;1.00;99.90
4687;DHT22;2357;47.316;-1.348;2022-12-18T06:42:59;1.00;99.90
4687;DHT22;2357;47.316;-1.348;2022-12-18T06:45:24;1.00;99.90
4687;DHT22;2357;47.316;-1.348;2022-12-18T06:47:50;1.10;99.90
4687;DHT22;2357;47.316;-1.348;2022-12-18T06:50:16;1.10;99.90
4687;DHT22;2357;47.316;-1.348;2022-12-18T06:52:41;1.10;99.90
4687;DHT22;2357;47.316;-1.348;2022-12-18T06:55:10;1.10;99.90
4687;DHT22;2357;47.316;-1.348;2022-12-18T06:57:36;1.20;99.90
4687;DHT22;2357;47.316;-1.348;2022-12-18T07:00:05;1.20;99.90
4687;DHT22;2357;47.316;-1.348;2022-12-18T07:02:31;1.20;99.90
4687;DHT22;2357;47.316;-1.348;2022-12-18T07:04:57;1.20;99.90
4687;DHT22;2357;47.316;-1.348;2022-12-18T07:07:23;1.20;99.90
4687;DHT22;2357;47.316;-1.348;2022-12-18T07:09:51;1.30;99.90
4687;DHT22;2357;47.316;-1.348;2022-12-18T07:12:17;1.30;99.90
4687;DHT22;2357;47.316;-1.348;2022-12-18T07:14:43;1.30;99.90
4687;DHT22;2357;47.316;-1.348;2022-12-18T07:17:09;1.30;99.90
4687;DHT22;2357;47.316;-1.348;2022-12-18T07:19:34;1.30;99.90
4687;DHT22;2357;47.316;-1.348;2022-12-18T07:22:00;1.30;99.90
4687;DHT22;2357;47.316;-1.348;2022-12-18T07:24:26;1.30;99.90
4687;DHT22;2357;47.316;-1.348;2022-12-18T07:26:52;1.30;99.90
4687;DHT22;2357;47.316;-1.348;2022-12-18T07:29:18;1.30;99.90
4687;DHT22;2357;47.316;-1.348;2022-12-18T07:31:44;1.30;99.90
4687;DHT22;2357;47.316;-1.348;2022-12-18T07:34:11;1.40;99.90
4687;DHT22;2357;47.316;-1.348;2022-12-18T07:36:37;1.30;99.90
4687;DHT22;2357;47.316;-1.348;2022-12-18T07:39:02;1.30;99.90
4687;DHT22;2357;47.316;-1.348;2022-12-18T07:41:28;1.40;99.90
4687;DHT22;2357;47.316;-1.348;2022-12-18T07:43:54;1.40;99.90
4687;DHT22;2357;47.316;-1.348;2022-12-18T07:46:19;1.40;99.90
4687;DHT22;2357;47.316;-1.348;2022-12-18T07:48:45;1.40;99.90
4687;DHT22;2357;47.316;-1.348;2022-12-18T07:51:11;1.40;99.90
4687;DHT22;2357;47.316;-1.348;2022-12-18T07:53:36;1.50;99.90
4687;DHT22;2357;47.316;-1.348;2022-12-18T07:56:07;1.50;99.90
4687;DHT22;2357;47.316;-1.348;2022-12-18T07:58:33;1.50;99.90
4687;DHT22;2357;47.316;-1.348;2022-12-18T08:01:07;1.60;99.90
4687;DHT22;2357;47.316;-1.348;2022-12-18T08:03:33;1.60;99.90
4687;DHT22;2357;47.316;-1.348;2022-12-18T08:06:03;1.40;99.90
4687;DHT22;2357;47.316;-1.348;2022-12-18T08:08:30;1.40;99.90
4687;DHT22;2357;47.316;-1.348;2022-12-18T08:10:56;1.50;99.90
4687;DHT22;2357;47.316;-1.348;2022-12-18T08:13:22;1.60;99.90
4687;DHT22;2357;47.316;-1.348;2022-12-18T08:16:06;1.60;99.90
4687;DHT22;2357;47.316;-1.348;2022-12-18T08:18:35;1.60;99.90
4687;DHT22;2357;47.316;-1.348;2022-12-18T08:21:20;1.60;99.90
4687;DHT22;2357;47.316;-1.348;2022-12-18T08:23:48;1.60;99.90
4687;DHT22;2357;47.316;-1.348;2022-12-18T08:26:14;1.70;99.90
4687;DHT22;2357;47.316;-1.348;2022-12-18T08:28:40;1.70;99.90
4687;DHT22;2357;47.316;-1.348;2022-12-18T08:31:06;1.70;99.90
4687;DHT22;2357;47.316;-1.348;2022-12-18T08:33:33;1.70;99.90
4687;DHT22;2357;47.316;-1.348;2022-12-18T08:35:59;1.70;99.90
4687;DHT22;2357;47.316;-1.348;2022-12-18T08:38:25;1.70;99.90
4687;DHT22;2357;47.316;-1.348;2022-12-18T08:40:58;1.70;99.90
4687;DHT22;2357;47.316;-1.348;2022-12-18T08:43:25;1.70;99.90
4687;DHT22;2357;47.316;-1.348;2022-12-18T08:46:10;1.80;99.90
4687;DHT22;2357;47.316;-1.348;2022-12-18T08:48:36;1.80;99.90
4687;DHT22;2357;47.316;-1.348;2022-12-18T08:51:02;1.90;99.90
4687;DHT22;2357;47.316;-1.348;2022-12-18T08:53:28;1.90;99.90
4687;DHT22;2357;47.316;-1.348;2022-12-18T08:55:53;1.90;99.90
4687;DHT22;2357;47.316;-1.348;2022-12-18T08:58:19;1.90;99.90
4687;DHT22;2357;47.316;-1.348;2022-12-18T09:00:45;1.90;99.90
4687;DHT22;2357;47.316;-1.348;2022-12-18T09:03:15;2.00;99.90
4687;DHT22;2357;47.316;-1.348;2022-12-18T09:05:41;2.10;99.90
4687;DHT22;2357;47.316;-1.348;2022-12-18T09:08:07;2.20;99.90
4687;DHT22;2357;47.316;-1.348;2022-12-18T09:10:33;2.20;99.90
4687;DHT22;2357;47.316;-1.348;2022-12-18T09:12:59;2.20;99.90
4687;DHT22;2357;47.316;-1.348;2022-12-18T09:15:25;2.30;99.90
4687;DHT22;2357;47.316;-1.348;2022-12-18T09:17:50;2.30;99.90
4687;DHT22;2357;47.316;-1.348;2022-12-18T09:20:18;2.30;99.90
4687;DHT22;2357;47.316;-1.348;2022-12-18T09:22:43;2.30;99.90
4687;DHT22;2357;47.316;-1.348;2022-12-18T09:25:09;2.40;99.90
4687;DHT22;2357;47.316;-1.348;2022-12-18T09:27:35;2.40;99.90
4687;DHT22;2357;47.316;-1.348;2022-12-18T09:30:02;2.50;99.90
4687;DHT22;2357;47.316;-1.348;2022-12-18T09:32:28;2.50;99.90
4687;DHT22;2357;47.316;-1.348;2022-12-18T09:34:54;2.40;99.90
4687;DHT22;2357;47.316;-1.348;2022-12-18T09:37:19;2.50;99.90
4687;DHT22;2357;47.316;-1.348;2022-12-18T09:39:45;2.50;99.90
4687;DHT22;2357;47.316;-1.348;2022-12-18T09:42:20;2.60;99.90
4687;DHT22;2357;47.316;-1.348;2022-12-18T09:44:53;2.60;99.90
4687;DHT22;2357;47.316;-1.348;2022-12-18T09:47:28;2.70;99.90
4687;DHT22;2357;47.316;-1.348;2022-12-18T09:50:02;2.80;99.90
4687;DHT22;2357;47.316;-1.348;2022-12-18T09:52:37;2.80;99.90
4687;DHT22;2357;47.316;-1.348;2022-12-18T09:57:40;2.80;99.90
4687;DHT22;2357;47.316;-1.348;2022-12-18T10:00:20;2.80;99.90
4687;DHT22;2357;47.316;-1.348;2022-12-18T10:02:46;2.80;99.90
4687;DHT22;2357;47.316;-1.348;2022-12-18T10:05:16;2.90;99.90
4687;DHT22;2357;47.316;-1.348;2022-12-18T10:10:47;2.90;99.90
4687;DHT22;2357;47.316;-1.348;2022-12-18T10:15:53;3.00;99.90
4687;DHT22;2357;47.316;-1.348;2022-12-18T10:18:33;3.00;99.90
4687;DHT22;2357;47.316;-1.348;2022-12-18T10:21:11;3.10;99.90
4687;DHT22;2357;47.316;-1.348;2022-12-18T10:26:11;3.10;99.90
4687;DHT22;2357;47.316;-1.348;2022-12-18T10:28:39;3.10;99.90
4687;DHT22;2357;47.316;-1.348;2022-12-18T10:31:10;3.20;99.90
4687;DHT22;2357;47.316;-1.348;2022-12-18T10:33:38;3.20;99.90
4687;DHT22;2357;47.316;-1.348;2022-12-18T10:36:04;3.20;99.90
4687;DHT22;2357;47.316;-1.348;2022-12-18T10:38:31;3.20;99.90
4687;DHT22;2357;47.316;-1.348;2022-12-18T10:40:58;3.30;99.90
4687;DHT22;2357;47.316;-1.348;2022-12-18T10:43:28;3.30;99.90
4687;DHT22;2357;47.316;-1.348;2022-12-18T10:48:32;3.30;99.90
4687;DHT22;2357;47.316;-1.348;2022-12-18T10:50:58;3.30;99.90
4687;DHT22;2357;47.316;-1.348;2022-12-18T10:53:27;3.40;99.90
4687;DHT22;2357;47.316;-1.348;2022-12-18T10:55:55;3.50;99.90
4687;DHT22;2357;47.316;-1.348;2022-12-18T10:58:29;3.40;99.90
4687;DHT22;2357;47.316;-1.348;2022-12-18T11:03:42;3.60;99.90
4687;DHT22;2357;47.316;-1.348;2022-12-18T11:06:17;3.60;99.90
4687;DHT22;2357;47.316;-1.348;2022-12-18T11:09:03;3.70;99.90
4687;DHT22;2357;47.316;-1.348;2022-12-18T11:11:31;3.70;99.90
4687;DHT22;2357;47.316;-1.348;2022-12-18T11:14:04;3.80;99.90
4687;DHT22;2357;47.316;-1.348;2022-12-18T11:16:34;3.80;99.90
4687;DHT22;2357;47.316;-1.348;2022-12-18T11:21:46;3.80;99.90
4687;DHT22;2357;47.316;-1.348;2022-12-18T11:24:41;3.90;99.90
4687;DHT22;2357;47.316;-1.348;2022-12-18T11:27:16;3.90;99.90
4687;DHT22;2357;47.316;-1.348;2022-12-18T11:29:43;3.90;99.90
4687;DHT22;2357;47.316;-1.348;2022-12-18T11:34:44;3.90;99.90
4687;DHT22;2357;47.316;-1.348;2022-12-18T11:37:12;3.90;99.90
4687;DHT22;2357;47.316;-1.348;2022-12-18T11:42:20;4.00;99.90
4687;DHT22;2357;47.316;-1.348;2022-12-18T11:44:55;4.00;99.90
4687;DHT22;2357;47.316;-1.348;2022-12-18T11:47:37;4.00;99.90
4687;DHT22;2357;47.316;-1.348;2022-12-18T11:50:33;4.10;99.90
4687;DHT22;2357;47.316;-1.348;2022-12-18T11:52:56;4.10;99.90
4687;DHT22;2357;47.316;-1.348;2022-12-18T11:58:24;4.20;99.90
4687;DHT22;2357;47.316;-1.348;2022-12-18T12:06:14;4.30;99.90
4687;DHT22;2357;47.316;-1.348;2022-12-18T12:09:13;4.40;99.90
4687;DHT22;2357;47.316;-1.348;2022-12-18T12:15:06;4.60;99.90
4687;DHT22;2357;47.316;-1.348;2022-12-18T12:34:24;4.80;99.90
4687;DHT22;2357;47.316;-1.348;2022-12-18T12:39:29;4.90;99.90
4687;DHT22;2357;47.316;-1.348;2022-12-18T12:41:56;5.00;99.90
4687;DHT22;2357;47.316;-1.348;2022-12-18T12:44:47;5.00;99.90
4687;DHT22;2357;47.316;-1.348;2022-12-18T12:47:17;5.10;99.90
4687;DHT22;2357;47.316;-1.348;2022-12-18T12:49:45;5.10;99.90
4687;DHT22;2357;47.316;-1.348;2022-12-18T12:52:37;5.10;99.90
4687;DHT22;2357;47.316;-1.348;2022-12-18T12:55:16;5.10;99.90
4687;DHT22;2357;47.316;-1.348;2022-12-18T12:57:51;5.10;99.90
4687;DHT22;2357;47.316;-1.348;2022-12-18T13:00:19;5.10;99.90
4687;DHT22;2357;47.316;-1.348;2022-12-18T13:03:03;5.10;99.90
4687;DHT22;2357;47.316;-1.348;2022-12-18T13:10:34;5.10;99.90
4687;DHT22;2357;47.316;-1.348;2022-12-18T13:13:08;5.20;99.90
4687;DHT22;2357;47.316;-1.348;2022-12-18T13:15:50;5.20;99.90
4687;DHT22;2357;47.316;-1.348;2022-12-18T13:18:28;5.20;99.90
4687;DHT22;2357;47.316;-1.348;2022-12-18T13:30:55;5.20;99.90
4687;DHT22;2357;47.316;-1.348;2022-12-18T13:33:43;5.20;99.90
4687;DHT22;2357;47.316;-1.348;2022-12-18T13:38:38;5.30;99.90
4687;DHT22;2357;47.316;-1.348;2022-12-18T13:46:28;5.30;99.90
4687;DHT22;2357;47.316;-1.348;2022-12-18T13:49:02;5.40;99.90
4687;DHT22;2357;47.316;-1.348;2022-12-18T13:51:31;5.40;99.90
4687;DHT22;2357;47.316;-1.348;2022-12-18T13:54:00;5.40;99.90
4687;DHT22;2357;47.316;-1.348;2022-12-18T13:56:32;5.40;99.90
4687;DHT22;2357;47.316;-1.348;2022-12-18T13:59:20;5.40;99.90
4687;DHT22;2357;47.316;-1.348;2022-12-18T14:01:58;5.40;99.90
4687;DHT22;2357;47.316;-1.348;2022-12-18T14:04:29;5.40;99.90
4687;DHT22;2357;47.316;-1.348;2022-12-18T14:09:54;5.50;99.90
4687;DHT22;2357;47.316;-1.348;2022-12-18T14:12:32;5.50;99.90
4687;DHT22;2357;47.316;-1.348;2022-12-18T14:15:22;5.50;99.90
4687;DHT22;2357;47.316;-1.348;2022-12-18T14:17:51;5.50;99.90
4687;DHT22;2357;47.316;-1.348;2022-12-18T14:20:17;5.50;99.90
4687;DHT22;2357;47.316;-1.348;2022-12-18T14:22:45;5.50;99.90
4687;DHT22;2357;47.316;-1.348;2022-12-18T14:25:16;5.60;99.90
4687;DHT22;2357;47.316;-1.348;2022-12-18T14:27:48;5.60;99.90
4687;DHT22;2357;47.316;-1.348;2022-12-18T14:33:13;5.60;99.90
4687;DHT22;2357;47.316;-1.348;2022-12-18T14:36:00;5.60;99.90
4687;DHT22;2357;47.316;-1.348;2022-12-18T14:38:37;5.60;99.90
4687;DHT22;2357;47.316;-1.348;2022-12-18T14:41:11;5.60;99.90
4687;DHT22;2357;47.316;-1.348;2022-12-18T14:43:39;5.60;99.90
4687;DHT22;2357;47.316;-1.348;2022-12-18T14:46:28;5.60;99.90
4687;DHT22;2357;47.316;-1.348;2022-12-18T14:48:52;5.60;99.90
4687;DHT22;2357;47.316;-1.348;2022-12-18T14:51:24;5.70;99.90
4687;DHT22;2357;47.316;-1.348;2022-12-18T14:53:54;5.70;99.90
4687;DHT22;2357;47.316;-1.348;2022-12-18T14:56:23;5.60;99.90
4687;DHT22;2357;47.316;-1.348;2022-12-18T14:59:16;5.70;99.90
4687;DHT22;2357;47.316;-1.348;2022-12-18T15:01:45;5.70;99.90
4687;DHT22;2357;47.316;-1.348;2022-12-18T15:04:35;5.70;99.90
4687;DHT22;2357;47.316;-1.348;2022-12-18T15:07:21;5.80;99.90
4687;DHT22;2357;47.316;-1.348;2022-12-18T15:10:13;5.80;99.90
4687;DHT22;2357;47.316;-1.348;2022-12-18T15:18:20;5.80;99.90
4687;DHT22;2357;47.316;-1.348;2022-12-18T15:20:58;5.90;99.90
4687;DHT22;2357;47.316;-1.348;2022-12-18T15:23:28;5.80;99.90
4687;DHT22;2357;47.316;-1.348;2022-12-18T15:26:03;5.90;99.90
4687;DHT22;2357;47.316;-1.348;2022-12-18T15:28:36;5.90;99.90
4687;DHT22;2357;47.316;-1.348;2022-12-18T15:33:41;5.90;99.90
4687;DHT22;2357;47.316;-1.348;2022-12-18T15:36:13;5.90;99.90
4687;DHT22;2357;47.316;-1.348;2022-12-18T15:38:39;6.00;99.90
4687;DHT22;2357;47.316;-1.348;2022-12-18T15:41:05;6.00;99.90
4687;DHT22;2357;47.316;-1.348;2022-12-18T15:43:30;6.00;99.90
4687;DHT22;2357;47.316;-1.348;2022-12-18T15:46:04;6.10;99.90
4687;DHT22;2357;47.316;-1.348;2022-12-18T15:48:31;6.10;99.90
4687;DHT22;2357;47.316;-1.348;2022-12-18T15:50:57;6.20;99.90
4687;DHT22;2357;47.316;-1.348;2022-12-18T15:53:25;6.20;99.90
4687;DHT22;2357;47.316;-1.348;2022-12-18T15:55:51;6.20;99.90
4687;DHT22;2357;47.316;-1.348;2022-12-18T15:58:35;6.30;99.90
4687;DHT22;2357;47.316;-1.348;2022-12-18T16:01:01;6.30;99.90
4687;DHT22;2357;47.316;-1.348;2022-12-18T16:03:27;6.30;99.90
4687;DHT22;2357;47.316;-1.348;2022-12-18T16:05:52;6.30;99.90
4687;DHT22;2357;47.316;-1.348;2022-12-18T16:08:18;6.30;99.90
4687;DHT22;2357;47.316;-1.348;2022-12-18T16:10:44;6.40;99.90
4687;DHT22;2357;47.316;-1.348;2022-12-18T16:13:11;6.40;99.90
4687;DHT22;2357;47.316;-1.348;2022-12-18T16:15:37;6.40;99.90
4687;DHT22;2357;47.316;-1.348;2022-12-18T16:18:03;6.40;99.90
4687;DHT22;2357;47.316;-1.348;2022-12-18T16:20:28;6.40;99.90
4687;DHT22;2357;47.316;-1.348;2022-12-18T16:22:54;6.40;99.90
4687;DHT22;2357;47.316;-1.348;2022-12-18T16:25:25;6.40;99.90
4687;DHT22;2357;47.316;-1.348;2022-12-18T16:27:52;6.40;99.90
4687;DHT22;2357;47.316;-1.348;2022-12-18T16:30:23;6.40;99.90
4687;DHT22;2357;47.316;-1.348;2022-12-18T16:32:49;6.40;99.90
4687;DHT22;2357;47.316;-1.348;2022-12-18T16:35:16;6.40;99.90
4687;DHT22;2357;47.316;-1.348;2022-12-18T16:37:43;6.50;99.90
4687;DHT22;2357;47.316;-1.348;2022-12-18T16:40:11;6.50;99.90
4687;DHT22;2357;47.316;-1.348;2022-12-18T16:42:38;6.60;99.90
4687;DHT22;2357;47.316;-1.348;2022-12-18T16:45:05;6.60;99.90
4687;DHT22;2357;47.316;-1.348;2022-12-18T16:47:31;6.50;99.90
4687;DHT22;2357;47.316;-1.348;2022-12-18T16:49:57;6.60;99.90
4687;DHT22;2357;47.316;-1.348;2022-12-18T16:52:23;6.60;99.90
4687;DHT22;2357;47.316;-1.348;2022-12-18T16:54:49;6.60;99.90
4687;DHT22;2357;47.316;-1.348;2022-12-18T16:57:17;6.60;99.90
4687;DHT22;2357;47.316;-1.348;2022-12-18T16:59:42;6.60;99.90
4687;DHT22;2357;47.316;-1.348;2022-12-18T17:02:17;6.60;99.90
4687;DHT22;2357;47.316;-1.348;2022-12-18T17:04:43;6.70;99.90
4687;DHT22;2357;47.316;-1.348;2022-12-18T17:07:09;6.70;99.90
4687;DHT22;2357;47.316;-1.348;2022-12-18T17:09:36;6.70;99.90
4687;DHT22;2357;47.316;-1.348;2022-12-18T17:12:02;6.70;99.90
4687;DHT22;2357;47.316;-1.348;2022-12-18T17:14:28;6.70;99.90
4687;DHT22;2357;47.316;-1.348;2022-12-18T17:16:54;6.70;99.90
4687;DHT22;2357;47.316;-1.348;2022-12-18T17:19:23;6.80;99.90
4687;DHT22;2357;47.316;-1.348;2022-12-18T17:21:49;6.80;99.90
4687;DHT22;2357;47.316;-1.348;2022-12-18T17:24:15;6.80;99.90
4687;DHT22;2357;47.316;-1.348;2022-12-18T17:26:41;6.90;99.90
4687;DHT22;2357;47.316;-1.348;2022-12-18T17:29:08;6.90;99.90
4687;DHT22;2357;47.316;-1.348;2022-12-18T17:31:34;7.00;99.90
4687;DHT22;2357;47.316;-1.348;2022-12-18T17:34:02;7.00;99.90
4687;DHT22;2357;47.316;-1.348;2022-12-18T17:36:28;7.00;99.90
4687;DHT22;2357;47.316;-1.348;2022-12-18T17:38:58;7.10;99.90
4687;DHT22;2357;47.316;-1.348;2022-12-18T17:41:25;7.10;99.90
4687;DHT22;2357;47.316;-1.348;2022-12-18T17:43:59;7.20;99.90
4687;DHT22;2357;47.316;-1.348;2022-12-18T17:46:27;7.20;99.90
4687;DHT22;2357;47.316;-1.348;2022-12-18T17:48:57;7.30;99.90
4687;DHT22;2357;47.316;-1.348;2022-12-18T17:51:23;7.30;99.90
4687;DHT22;2357;47.316;-1.348;2022-12-18T17:53:49;7.40;99.90
4687;DHT22;2357;47.316;-1.348;2022-12-18T17:56:16;7.40;99.90
4687;DHT22;2357;47.316;-1.348;2022-12-18T17:58:42;7.40;99.90
4687;DHT22;2357;47.316;-1.348;2022-12-18T18:01:13;7.40;99.90
4687;DHT22;2357;47.316;-1.348;2022-12-18T18:03:39;7.50;99.90
4687;DHT22;2357;47.316;-1.348;2022-12-18T18:06:05;7.60;99.90
4687;DHT22;2357;47.316;-1.348;2022-12-18T18:08:33;7.60;99.90